sensor_id;sensor_type;location;lat;lon;timestamp;temperature;humidity
64987;DHT22;67903;52.108;9.358;2023-04-06T00:00:53;0.80;69.70
64987;DHT22;67903;52.108;9.358;2023-04-06T00:03:20;0.80;69.80
64987;DHT22;67903;52.108;9.358;2023-04-06T00:05:48;0.70;69.70
64987;DHT22;67903;52.108;9.358;2023-04-06T00:08:14;0.70;69.70
64987;DHT22;67903;52.108;9.358;2023-04-06T00:10:41;0.70;69.80
64987;DHT22;67903;52.108;9.358;2023-04-06T00:13:08;0.70;69.90
64987;DHT22;67903;52.108;9.358;2023-04-06T00:15:35;0.60;70.40
64987;DHT22;67903;52.108;9.358;2023-04-06T00:18:02;0.60;70.70
64987;DHT22;67903;52.108;9.358;2023-04-06T00:20:29;0.60;71.00
64987;DHT22;67903;52.108;9.358;2023-04-06T00:22:56;0.60;71.30
64987;DHT22;67903;52.108;9.358;2023-04-06T00:25:23;0.60;71.50
64987;DHT22;67903;52.108;9.358;2023-04-06T00:27:50;0.50;71.70
64987;DHT22;67903;52.108;9.358;2023-04-06T00:30:17;0.50;72.00
64987;DHT22;67903;52.108;9.358;2023-04-06T00:32:43;0.50;72.10
64987;DHT22;67903;52.108;9.358;2023-04-06T00:35:10;0.50;72.10
64987;DHT22;67903;52.108;9.358;2023-04-06T00:37:37;0.40;72.00
64987;DHT22;67903;52.108;9.358;2023-04-06T00:40:04;0.40;72.10
64987;DHT22;67903;52.108;9.358;2023-04-06T00:42:31;0.40;72.00
64987;DHT22;67903;52.108;9.358;2023-04-06T00:45:00;0.30;71.90
64987;DHT22;67903;52.108;9.358;2023-04-06T00:47:28;0.40;71.60
64987;DHT22;67903;52.108;9.358;2023-04-06T00:49:56;0.40;71.20
64987;DHT22;67903;52.108;9.358;2023-04-06T00:52:23;0.30;71.00
64987;DHT22;67903;52.108;9.358;2023-04-06T00:54:51;0.20;71.10
64987;DHT22;67903;52.108;9.358;2023-04-06T00:57:19;0.20;70.90
64987;DHT22;67903;52.108;9.358;2023-04-06T00:59:52;0.20;71.10
64987;DHT22;67903;52.108;9.358;2023-04-06T01:02:19;0.20;71.00
64987;DHT22;67903;52.108;9.358;2023-04-06T01:04:49;0.20;71.10
64987;DHT22;67903;52.108;9.358;2023-04-06T01:07:24;0.10;71.20
64987;DHT22;67903;52.108;9.358;2023-04-06T01:10:27;0.10;71.10
64987;DHT22;67903;52.108;9.358;2023-04-06T01:13:01;0.00;71.20
64987;DHT22;67903;52.108;9.358;2023-04-06T01:15:43;0.00;71.30
64987;DHT22;67903;52.108;9.358;2023-04-06T01:18:14;0.00;71.50
64987;DHT22;67903;52.108;9.358;2023-04-06T01:20:48;0.00;71.60
64987;DHT22;67903;52.108;9.358;2023-04-06T01:23:16;0.00;71.70
64987;DHT22;67903;52.108;9.358;2023-04-06T01:25:46;0.00;71.80
64987;DHT22;67903;52.108;9.358;2023-04-06T01:28:13;0.00;72.00
64987;DHT22;67903;52.108;9.358;2023-04-06T01:31:09;0.00;72.20
64987;DHT22;67903;52.108;9.358;2023-04-06T01:33:43;0.00;72.20
64987;DHT22;67903;52.108;9.358;2023-04-06T01:36:14;0.00;72.20
64987;DHT22;67903;52.108;9.358;2023-04-06T01:38:42;0.00;72.20
64987;DHT22;67903;52.108;9.358;2023-04-06T01:41:09;-0.10;72.30
64987;DHT22;67903;52.108;9.358;2023-04-06T01:43:51;0.00;72.40
64987;DHT22;67903;52.108;9.358;2023-04-06T01:46:24;0.00;72.50
64987;DHT22;67903;52.108;9.358;2023-04-06T01:48:51;-0.10;72.80
64987;DHT22;67903;52.108;9.358;2023-04-06T01:51:27;-0.10;73.00
64987;DHT22;67903;52.108;9.358;2023-04-06T01:53:57;-0.10;72.90
64987;DHT22;67903;52.108;9.358;2023-04-06T01:56:35;-0.10;72.80
64987;DHT22;67903;52.108;9.358;2023-04-06T01:59:12;-0.10;72.70
64987;DHT22;67903;52.108;9.358;2023-04-06T02:01:42;-0.20;72.80
64987;DHT22;67903;52.108;9.358;2023-04-06T02:04:09;-0.20;72.90
64987;DHT22;67903;52.108;9.358;2023-04-06T02:06:36;-0.20;72.70
64987;DHT22;67903;52.108;9.358;2023-04-06T02:09:04;-0.30;72.60
64987;DHT22;67903;52.108;9.358;2023-04-06T02:11:32;-0.40;72.70
64987;DHT22;67903;52.108;9.358;2023-04-06T02:13:58;-0.40;72.90
64987;DHT22;67903;52.108;9.358;2023-04-06T02:16:30;-0.60;73.20
64987;DHT22;67903;52.108;9.358;2023-04-06T02:18:57;-0.70;73.40
64987;DHT22;67903;52.108;9.358;2023-04-06T02:21:24;-0.70;73.60
64987;DHT22;67903;52.108;9.358;2023-04-06T02:23:51;-0.70;73.90
64987;DHT22;67903;52.108;9.358;2023-04-06T02:26:18;-0.70;74.10
64987;DHT22;67903;52.108;9.358;2023-04-06T02:28:44;-0.70;74.30
64987;DHT22;67903;52.108;9.358;2023-04-06T02:31:11;-0.70;74.10
64987;DHT22;67903;52.108;9.358;2023-04-06T02:33:39;-0.70;74.10
64987;DHT22;67903;52.108;9.358;2023-04-06T02:36:06;-0.60;74.30
64987;DHT22;67903;52.108;9.358;2023-04-06T02:38:33;-0.60;74.20
64987;DHT22;67903;52.108;9.358;2023-04-06T02:41:01;-0.60;74.30
64987;DHT22;67903;52.108;9.358;2023-04-06T02:43:29;-0.50;74.10
64987;DHT22;67903;52.108;9.358;2023-04-06T02:46:07;-0.50;74.20
64987;DHT22;67903;52.108;9.358;2023-04-06T02:48:37;-0.50;74.30
64987;DHT22;67903;52.108;9.358;2023-04-06T02:51:04;-0.60;74.30
64987;DHT22;67903;52.108;9.358;2023-04-06T02:53:32;-0.60;74.40
64987;DHT22;67903;52.108;9.358;2023-04-06T02:55:59;-0.70;74.70
64987;DHT22;67903;52.108;9.358;2023-04-06T02:58:35;-0.70;75.00
64987;DHT22;67903;52.108;9.358;2023-04-06T03:01:01;-0.60;75.10
64987;DHT22;67903;52.108;9.358;2023-04-06T03:03:28;-0.60;75.20
64987;DHT22;67903;52.108;9.358;2023-04-06T03:05:56;-0.60;75.30
64987;DHT22;67903;52.108;9.358;2023-04-06T03:08:28;-0.60;75.40
64987;DHT22;67903;52.108;9.358;2023-04-06T03:10:54;-0.60;75.50
64987;DHT22;67903;52.108;9.358;2023-04-06T03:13:29;-0.60;75.50
64987;DHT22;67903;52.108;9.358;2023-04-06T03:15:57;-0.60;75.30
64987;DHT22;67903;52.108;9.358;2023-04-06T03:18:25;-0.60;75.30
64987;DHT22;67903;52.108;9.358;2023-04-06T03:20:54;-0.60;75.30
64987;DHT22;67903;52.108;9.358;2023-04-06T03:23:27;-0.60;75.50
64987;DHT22;67903;52.108;9.358;2023-04-06T03:25:58;-0.60;75.40
64987;DHT22;67903;52.108;9.358;2023-04-06T03:28:25;-0.70;75.40
64987;DHT22;67903;52.108;9.358;2023-04-06T03:30:55;-0.60;75.40
64987;DHT22;67903;52.108;9.358;2023-04-06T03:33:48;-0.60;75.20
64987;DHT22;67903;52.108;9.358;2023-04-06T03:36:22;-0.60;75.30
64987;DHT22;67903;52.108;9.358;2023-04-06T03:38:49;-0.70;75.20
64987;DHT22;67903;52.108;9.358;2023-04-06T03:41:16;-0.70;75.40
64987;DHT22;67903;52.108;9.358;2023-04-06T03:43:54;-0.70;75.50
64987;DHT22;67903;52.108;9.358;2023-04-06T03:46:20;-0.70;75.40
64987;DHT22;67903;52.108;9.358;2023-04-06T03:48:51;-0.70;75.40
64987;DHT22;67903;52.108;9.358;2023-04-06T03:51:20;-0.70;75.30
64987;DHT22;67903;52.108;9.358;2023-04-06T03:53:47;-0.60;75.10
64987;DHT22;67903;52.108;9.358;2023-04-06T03:56:14;-0.70;75.00
64987;DHT22;67903;52.108;9.358;2023-04-06T03:58:41;-0.70;75.00
64987;DHT22;67903;52.108;9.358;2023-04-06T04:01:08;-0.70;75.30
64987;DHT22;67903;52.108;9.358;2023-04-06T04:03:34;-0.70;75.40
64987;DHT22;67903;52.108;9.358;2023-04-06T04:06:02;-0.70;75.60
64987;DHT22;67903;52.108;9.358;2023-04-06T04:08:28;-0.80;75.80
64987;DHT22;67903;52.108;9.358;2023-04-06T04:10:55;-0.80;75.70
64987;DHT22;67903;52.108;9.358;2023-04-06T04:13:22;-0.80;75.50
64987;DHT22;67903;52.108;9.358;2023-04-06T04:15:50;-0.80;75.50
64987;DHT22;67903;52.108;9.358;2023-04-06T04:18:17;-0.80;75.70
64987;DHT22;67903;52.108;9.358;2023-04-06T04:20:44;-0.80;75.30
64987;DHT22;67903;52.108;9.358;2023-04-06T04:23:12;-0.90;75.30
64987;DHT22;67903;52.108;9.358;2023-04-06T04:25:40;-0.90;75.40
64987;DHT22;67903;52.108;9.358;2023-04-06T04:28:06;-0.90;75.10
64987;DHT22;67903;52.108;9.358;2023-04-06T04:30:35;-0.90;74.80
64987;DHT22;67903;52.108;9.358;2023-04-06T04:33:05;-0.90;74.70
64987;DHT22;67903;52.108;9.358;2023-04-06T04:35:32;-0.90;74.60
64987;DHT22;67903;52.108;9.358;2023-04-06T04:37:59;-0.90;74.80
64987;DHT22;67903;52.108;9.358;2023-04-06T04:40:26;-0.90;74.70
64987;DHT22;67903;52.108;9.358;2023-04-06T04:43:01;-0.80;74.60
64987;DHT22;67903;52.108;9.358;2023-04-06T04:45:32;-0.90;74.60
64987;DHT22;67903;52.108;9.358;2023-04-06T04:48:06;-0.90;74.60
64987;DHT22;67903;52.108;9.358;2023-04-06T04:50:46;-0.90;74.70
64987;DHT22;67903;52.108;9.358;2023-04-06T04:53:14;-0.90;74.70
64987;DHT22;67903;52.108;9.358;2023-04-06T04:55:42;-0.90;74.90
64987;DHT22;67903;52.108;9.358;2023-04-06T04:58:11;-0.90;74.70
64987;DHT22;67903;52.108;9.358;2023-04-06T05:00:49;-1.00;74.80
64987;DHT22;67903;52.108;9.358;2023-04-06T05:03:21;-1.00;75.00
64987;DHT22;67903;52.108;9.358;2023-04-06T05:05:56;-1.00;75.20
64987;DHT22;67903;52.108;9.358;2023-04-06T05:08:25;-0.90;75.20
64987;DHT22;67903;52.108;9.358;2023-04-06T05:10:52;-0.80;74.80
64987;DHT22;67903;52.108;9.358;2023-04-06T05:13:20;-0.80;74.70
64987;DHT22;67903;52.108;9.358;2023-04-06T05:15:48;-0.90;74.90
64987;DHT22;67903;52.108;9.358;2023-04-06T05:18:31;-0.90;74.90
64987;DHT22;67903;52.108;9.358;2023-04-06T05:20:59;-0.90;74.90
64987;DHT22;67903;52.108;9.358;2023-04-06T05:23:34;-0.90;74.80
64987;DHT22;67903;52.108;9.358;2023-04-06T05:26:02;-0.80;74.80
64987;DHT22;67903;52.108;9.358;2023-04-06T05:28:29;-0.80;74.80
64987;DHT22;67903;52.108;9.358;2023-04-06T05:30:56;-0.80;74.60
64987;DHT22;67903;52.108;9.358;2023-04-06T05:33:25;-0.70;74.50
64987;DHT22;67903;52.108;9.358;2023-04-06T05:36:01;-0.70;74.50
64987;DHT22;67903;52.108;9.358;2023-04-06T05:38:30;-0.70;74.30
64987;DHT22;67903;52.108;9.358;2023-04-06T05:41:02;-0.70;73.90
64987;DHT22;67903;52.108;9.358;2023-04-06T05:43:31;-0.60;73.60
64987;DHT22;67903;52.108;9.358;2023-04-06T05:45:59;-0.60;73.60
64987;DHT22;67903;52.108;9.358;2023-04-06T05:48:27;-0.50;73.60
64987;DHT22;67903;52.108;9.358;2023-04-06T05:50:54;-0.50;73.60
64987;DHT22;67903;52.108;9.358;2023-04-06T05:53:27;-0.50;73.80
64987;DHT22;67903;52.108;9.358;2023-04-06T05:56:02;-0.40;73.90
64987;DHT22;67903;52.108;9.358;2023-04-06T05:58:29;-0.40;73.80
64987;DHT22;67903;52.108;9.358;2023-04-06T06:00:58;-0.30;73.80
64987;DHT22;67903;52.108;9.358;2023-04-06T06:03:27;-0.30;73.60
64987;DHT22;67903;52.108;9.358;2023-04-06T06:06:00;-0.30;73.50
64987;DHT22;67903;52.108;9.358;2023-04-06T06:08:40;-0.20;73.40
64987;DHT22;67903;52.108;9.358;2023-04-06T06:11:12;-0.10;73.30
64987;DHT22;67903;52.108;9.358;2023-04-06T06:13:39;-0.10;73.00
64987;DHT22;67903;52.108;9.358;2023-04-06T06:16:06;-0.10;73.00
64987;DHT22;67903;52.108;9.358;2023-04-06T06:18:38;0.00;72.90
64987;DHT22;67903;52.108;9.358;2023-04-06T06:21:06;0.00;72.50
64987;DHT22;67903;52.108;9.358;2023-04-06T06:23:33;0.00;72.40
64987;DHT22;67903;52.108;9.358;2023-04-06T06:26:01;0.20;72.20
64987;DHT22;67903;52.108;9.358;2023-04-06T06:28:29;0.20;72.10
64987;DHT22;67903;52.108;9.358;2023-04-06T06:30:57;0.30;72.00
64987;DHT22;67903;52.108;9.358;2023-04-06T06:33:25;0.30;71.80
64987;DHT22;67903;52.108;9.358;2023-04-06T06:35:54;0.40;71.50
64987;DHT22;67903;52.108;9.358;2023-04-06T06:38:21;0.50;71.40
64987;DHT22;67903;52.108;9.358;2023-04-06T06:40:50;0.60;71.00
64987;DHT22;67903;52.108;9.358;2023-04-06T06:43:18;0.70;70.60
64987;DHT22;67903;52.108;9.358;2023-04-06T06:45:57;0.80;70.30
64987;DHT22;67903;52.108;9.358;2023-04-06T06:48:25;0.80;69.70
64987;DHT22;67903;52.108;9.358;2023-04-06T06:50:52;0.90;69.30
64987;DHT22;67903;52.108;9.358;2023-04-06T06:53:19;1.00;68.80
64987;DHT22;67903;52.108;9.358;2023-04-06T06:55:46;1.00;68.60
64987;DHT22;67903;52.108;9.358;2023-04-06T06:58:17;1.10;68.30
64987;DHT22;67903;52.108;9.358;2023-04-06T07:00:44;1.20;68.10
64987;DHT22;67903;52.108;9.358;2023-04-06T07:03:11;1.40;67.80
64987;DHT22;67903;52.108;9.358;2023-04-06T07:05:45;1.40;67.60
64987;DHT22;67903;52.108;9.358;2023-04-06T07:08:16;1.50;67.10
64987;DHT22;67903;52.108;9.358;2023-04-06T07:10:43;1.70;66.20
64987;DHT22;67903;52.108;9.358;2023-04-06T07:13:09;1.80;65.70
64987;DHT22;67903;52.108;9.358;2023-04-06T07:15:36;2.00;65.00
64987;DHT22;67903;52.108;9.358;2023-04-06T07:18:03;2.10;64.30
64987;DHT22;67903;52.108;9.358;2023-04-06T07:20:30;2.20;63.80
64987;DHT22;67903;52.108;9.358;2023-04-06T07:22:57;2.30;63.70
64987;DHT22;67903;52.108;9.358;2023-04-06T07:25:24;2.40;62.80
64987;DHT22;67903;52.108;9.358;2023-04-06T07:27:51;2.50;62.10
64987;DHT22;67903;52.108;9.358;2023-04-06T07:30:18;2.60;62.20
64987;DHT22;67903;52.108;9.358;2023-04-06T07:32:45;2.80;61.50
64987;DHT22;67903;52.108;9.358;2023-04-06T07:35:12;3.00;60.60
64987;DHT22;67903;52.108;9.358;2023-04-06T07:37:40;3.10;59.40
64987;DHT22;67903;52.108;9.358;2023-04-06T07:40:09;3.10;59.10
64987;DHT22;67903;52.108;9.358;2023-04-06T07:42:36;3.30;58.80
64987;DHT22;67903;52.108;9.358;2023-04-06T07:45:06;3.40;58.40
64987;DHT22;67903;52.108;9.358;2023-04-06T07:47:33;3.50;58.20
64987;DHT22;67903;52.108;9.358;2023-04-06T07:50:01;3.60;58.20
64987;DHT22;67903;52.108;9.358;2023-04-06T07:52:28;3.70;56.90
64987;DHT22;67903;52.108;9.358;2023-04-06T07:54:55;3.90;57.00
64987;DHT22;67903;52.108;9.358;2023-04-06T07:57:22;3.90;56.70
64987;DHT22;67903;52.108;9.358;2023-04-06T07:59:49;4.10;56.10
64987;DHT22;67903;52.108;9.358;2023-04-06T08:02:16;4.10;56.00
64987;DHT22;67903;52.108;9.358;2023-04-06T08:04:44;4.20;56.10
64987;DHT22;67903;52.108;9.358;2023-04-06T08:07:11;4.40;56.10
64987;DHT22;67903;52.108;9.358;2023-04-06T08:09:38;4.40;55.70
64987;DHT22;67903;52.108;9.358;2023-04-06T08:12:05;4.50;55.90
64987;DHT22;67903;52.108;9.358;2023-04-06T08:14:32;4.70;55.50
64987;DHT22;67903;52.108;9.358;2023-04-06T08:16:59;4.70;54.80
64987;DHT22;67903;52.108;9.358;2023-04-06T08:19:26;4.70;55.30
64987;DHT22;67903;52.108;9.358;2023-04-06T08:21:53;4.90;55.50
64987;DHT22;67903;52.108;9.358;2023-04-06T08:24:19;5.00;55.00
64987;DHT22;67903;52.108;9.358;2023-04-06T08:26:46;5.10;54.20
64987;DHT22;67903;52.108;9.358;2023-04-06T08:29:13;5.20;54.50
64987;DHT22;67903;52.108;9.358;2023-04-06T08:31:40;5.30;54.10
64987;DHT22;67903;52.108;9.358;2023-04-06T08:34:07;5.30;53.70
64987;DHT22;67903;52.108;9.358;2023-04-06T08:36:37;5.50;53.50
64987;DHT22;67903;52.108;9.358;2023-04-06T08:39:03;5.60;53.40
64987;DHT22;67903;52.108;9.358;2023-04-06T08:41:30;5.80;52.50
64987;DHT22;67903;52.108;9.358;2023-04-06T08:43:59;5.70;52.60
64987;DHT22;67903;52.108;9.358;2023-04-06T08:46:28;5.80;52.60
64987;DHT22;67903;52.108;9.358;2023-04-06T08:49:02;5.90;52.00
64987;DHT22;67903;52.108;9.358;2023-04-06T08:51:29;5.90;52.40
64987;DHT22;67903;52.108;9.358;2023-04-06T08:53:58;6.00;51.70
64987;DHT22;67903;52.108;9.358;2023-04-06T08:56:27;6.10;51.50
64987;DHT22;67903;52.108;9.358;2023-04-06T08:58:55;6.30;50.90
64987;DHT22;67903;52.108;9.358;2023-04-06T09:01:28;6.40;50.60
64987;DHT22;67903;52.108;9.358;2023-04-06T09:03:58;6.40;50.50
64987;DHT22;67903;52.108;9.358;2023-04-06T09:06:26;6.50;50.00
64987;DHT22;67903;52.108;9.358;2023-04-06T09:08:53;6.60;50.00
64987;DHT22;67903;52.108;9.358;2023-04-06T09:11:21;6.70;49.20
64987;DHT22;67903;52.108;9.358;2023-04-06T09:16:17;6.90;48.60
64987;DHT22;67903;52.108;9.358;2023-04-06T09:18:45;6.90;48.50
64987;DHT22;67903;52.108;9.358;2023-04-06T09:21:12;7.00;47.90
64987;DHT22;67903;52.108;9.358;2023-04-06T09:23:39;7.10;47.30
64987;DHT22;67903;52.108;9.358;2023-04-06T09:26:14;7.20;47.20
64987;DHT22;67903;52.108;9.358;2023-04-06T09:28:49;7.20;47.10
64987;DHT22;67903;52.108;9.358;2023-04-06T09:31:21;7.30;48.00
64987;DHT22;67903;52.108;9.358;2023-04-06T09:33:49;7.50;48.10
64987;DHT22;67903;52.108;9.358;2023-04-06T09:36:16;7.50;47.60
64987;DHT22;67903;52.108;9.358;2023-04-06T09:39:02;7.50;47.90
64987;DHT22;67903;52.108;9.358;2023-04-06T09:41:31;7.70;46.80
64987;DHT22;67903;52.108;9.358;2023-04-06T09:46:37;7.80;45.90
64987;DHT22;67903;52.108;9.358;2023-04-06T09:49:27;7.70;46.50
64987;DHT22;67903;52.108;9.358;2023-04-06T09:52:00;7.80;46.40
64987;DHT22;67903;52.108;9.358;2023-04-06T09:54:29;8.00;45.80
64987;DHT22;67903;52.108;9.358;2023-04-06T10:00:05;8.40;44.90
64987;DHT22;67903;52.108;9.358;2023-04-06T10:05:55;8.60;43.80
64987;DHT22;67903;52.108;9.358;2023-04-06T10:08:27;8.70;43.50
64987;DHT22;67903;52.108;9.358;2023-04-06T10:10:59;8.80;43.00
64987;DHT22;67903;52.108;9.358;2023-04-06T10:13:27;8.90;42.90
64987;DHT22;67903;52.108;9.358;2023-04-06T10:15:54;9.00;43.20
64987;DHT22;67903;52.108;9.358;2023-04-06T10:18:21;9.00;42.60
64987;DHT22;67903;52.108;9.358;2023-04-06T10:21:00;9.10;42.10
64987;DHT22;67903;52.108;9.358;2023-04-06T10:23:36;9.10;41.60
64987;DHT22;67903;52.108;9.358;2023-04-06T10:26:03;9.20;42.80
64987;DHT22;67903;52.108;9.358;2023-04-06T10:28:33;9.30;42.30
64987;DHT22;67903;52.108;9.358;2023-04-06T10:31:05;9.40;41.80
64987;DHT22;67903;52.108;9.358;2023-04-06T10:33:33;9.40;41.70
64987;DHT22;67903;52.108;9.358;2023-04-06T10:36:23;9.50;42.30
64987;DHT22;67903;52.108;9.358;2023-04-06T10:38:55;9.60;41.60
64987;DHT22;67903;52.108;9.358;2023-04-06T10:41:23;9.60;42.20
64987;DHT22;67903;52.108;9.358;2023-04-06T10:43:56;9.60;42.30
64987;DHT22;67903;52.108;9.358;2023-04-06T10:46:29;9.80;42.30
64987;DHT22;67903;52.108;9.358;2023-04-06T10:48:56;9.90;41.90
64987;DHT22;67903;52.108;9.358;2023-04-06T10:51:26;10.00;41.00
64987;DHT22;67903;52.108;9.358;2023-04-06T10:53:56;10.10;41.40
64987;DHT22;67903;52.108;9.358;2023-04-06T10:56:24;10.10;41.20
64987;DHT22;67903;52.108;9.358;2023-04-06T10:58:55;10.20;41.10
64987;DHT22;67903;52.108;9.358;2023-04-06T11:01:24;10.30;40.60
64987;DHT22;67903;52.108;9.358;2023-04-06T11:03:54;10.40;39.90
64987;DHT22;67903;52.108;9.358;2023-04-06T11:06:24;10.40;39.70
64987;DHT22;67903;52.108;9.358;2023-04-06T11:08:53;10.40;40.50
64987;DHT22;67903;52.108;9.358;2023-04-06T11:11:21;10.50;40.70
64987;DHT22;67903;52.108;9.358;2023-04-06T11:13:51;10.50;39.80
64987;DHT22;67903;52.108;9.358;2023-04-06T11:16:27;10.60;40.40
64987;DHT22;67903;52.108;9.358;2023-04-06T11:18:56;10.60;40.10
64987;DHT22;67903;52.108;9.358;2023-04-06T11:21:36;10.60;40.40
64987;DHT22;67903;52.108;9.358;2023-04-06T11:26:31;10.70;40.10
64987;DHT22;67903;52.108;9.358;2023-04-06T11:28:58;10.90;39.50
64987;DHT22;67903;52.108;9.358;2023-04-06T11:31:25;11.00;39.50
64987;DHT22;67903;52.108;9.358;2023-04-06T11:33:56;11.00;40.50
64987;DHT22;67903;52.108;9.358;2023-04-06T11:36:27;11.10;39.40
64987;DHT22;67903;52.108;9.358;2023-04-06T11:38:56;11.10;40.00
64987;DHT22;67903;52.108;9.358;2023-04-06T11:41:23;11.10;39.80
64987;DHT22;67903;52.108;9.358;2023-04-06T11:43:55;11.20;39.70
64987;DHT22;67903;52.108;9.358;2023-04-06T11:46:22;11.20;39.90
64987;DHT22;67903;52.108;9.358;2023-04-06T11:48:49;11.30;39.30
64987;DHT22;67903;52.108;9.358;2023-04-06T11:51:22;11.40;39.60
64987;DHT22;67903;52.108;9.358;2023-04-06T11:53:50;11.40;39.50
64987;DHT22;67903;52.108;9.358;2023-04-06T11:56:24;11.40;39.20
64987;DHT22;67903;52.108;9.358;2023-04-06T11:58:53;11.40;39.70
64987;DHT22;67903;52.108;9.358;2023-04-06T12:01:20;11.50;40.20
64987;DHT22;67903;52.108;9.358;2023-04-06T12:03:47;11.40;40.00
64987;DHT22;67903;52.108;9.358;2023-04-06T12:06:14;11.60;39.60
64987;DHT22;67903;52.108;9.358;2023-04-06T12:08:41;11.70;38.70
64987;DHT22;67903;52.108;9.358;2023-04-06T12:11:08;11.70;39.00
64987;DHT22;67903;52.108;9.358;2023-04-06T12:13:35;11.80;39.00
64987;DHT22;67903;52.108;9.358;2023-04-06T12:16:02;11.90;38.90
64987;DHT22;67903;52.108;9.358;2023-04-06T12:18:29;11.90;39.30
64987;DHT22;67903;52.108;9.358;2023-04-06T12:20:56;11.90;39.60
64987;DHT22;67903;52.108;9.358;2023-04-06T12:23:23;12.00;38.50
64987;DHT22;67903;52.108;9.358;2023-04-06T12:25:50;12.10;38.60
64987;DHT22;67903;52.108;9.358;2023-04-06T12:28:17;12.10;38.50
64987;DHT22;67903;52.108;9.358;2023-04-06T12:30:44;12.20;38.60
64987;DHT22;67903;52.108;9.358;2023-04-06T12:33:11;12.30;38.10
64987;DHT22;67903;52.108;9.358;2023-04-06T12:35:38;12.30;39.10
64987;DHT22;67903;52.108;9.358;2023-04-06T12:38:05;12.40;38.60
64987;DHT22;67903;52.108;9.358;2023-04-06T12:40:36;12.50;39.00
64987;DHT22;67903;52.108;9.358;2023-04-06T12:43:04;12.50;37.70
64987;DHT22;67903;52.108;9.358;2023-04-06T12:45:31;12.50;39.30
64987;DHT22;67903;52.108;9.358;2023-04-06T12:47:58;12.50;37.50
64987;DHT22;67903;52.108;9.358;2023-04-06T12:50:25;12.40;37.60
64987;DHT22;67903;52.108;9.358;2023-04-06T12:52:53;12.50;38.20
64987;DHT22;67903;52.108;9.358;2023-04-06T12:55:19;12.50;37.90
64987;DHT22;67903;52.108;9.358;2023-04-06T12:57:47;12.50;38.30
64987;DHT22;67903;52.108;9.358;2023-04-06T13:00:14;12.70;38.20
64987;DHT22;67903;52.108;9.358;2023-04-06T13:02:41;12.70;38.30
64987;DHT22;67903;52.108;9.358;2023-04-06T13:05:14;12.70;38.80
64987;DHT22;67903;52.108;9.358;2023-04-06T13:07:45;12.70;38.80
64987;DHT22;67903;52.108;9.358;2023-04-06T13:10:13;12.80;38.30
64987;DHT22;67903;52.108;9.358;2023-04-06T13:12:39;12.90;37.70
64987;DHT22;67903;52.108;9.358;2023-04-06T13:15:07;12.90;37.90
64987;DHT22;67903;52.108;9.358;2023-04-06T13:17:33;13.00;38.60
64987;DHT22;67903;52.108;9.358;2023-04-06T13:20:01;13.00;38.00
64987;DHT22;67903;52.108;9.358;2023-04-06T13:22:27;13.10;37.40
64987;DHT22;67903;52.108;9.358;2023-04-06T13:24:54;13.10;38.90
64987;DHT22;67903;52.108;9.358;2023-04-06T13:27:21;13.10;37.90
64987;DHT22;67903;52.108;9.358;2023-04-06T13:29:48;13.30;37.80
64987;DHT22;67903;52.108;9.358;2023-04-06T13:32:14;13.30;37.90
64987;DHT22;67903;52.108;9.358;2023-04-06T13:34:42;13.30;38.00
64987;DHT22;67903;52.108;9.358;2023-04-06T13:37:12;13.30;37.50
64987;DHT22;67903;52.108;9.358;2023-04-06T13:39:39;13.30;38.20
64987;DHT22;67903;52.108;9.358;2023-04-06T13:42:06;13.30;37.70
64987;DHT22;67903;52.108;9.358;2023-04-06T13:44:33;13.30;36.50
64987;DHT22;67903;52.108;9.358;2023-04-06T13:47:00;13.40;36.30
64987;DHT22;67903;52.108;9.358;2023-04-06T13:49:26;13.50;37.20
64987;DHT22;67903;52.108;9.358;2023-04-06T13:51:53;13.50;36.60
64987;DHT22;67903;52.108;9.358;2023-04-06T13:54:20;13.50;35.50
64987;DHT22;67903;52.108;9.358;2023-04-06T13:56:47;13.30;34.80
64987;DHT22;67903;52.108;9.358;2023-04-06T13:59:13;13.30;34.30
64987;DHT22;67903;52.108;9.358;2023-04-06T14:01:41;13.30;36.50
64987;DHT22;67903;52.108;9.358;2023-04-06T14:04:08;13.50;36.60
64987;DHT22;67903;52.108;9.358;2023-04-06T14:06:35;13.50;35.30
64987;DHT22;67903;52.108;9.358;2023-04-06T14:09:01;13.50;34.60
64987;DHT22;67903;52.108;9.358;2023-04-06T14:11:28;13.50;35.60
64987;DHT22;67903;52.108;9.358;2023-04-06T14:13:55;13.50;36.50
64987;DHT22;67903;52.108;9.358;2023-04-06T14:16:24;13.50;36.80
64987;DHT22;67903;52.108;9.358;2023-04-06T14:18:51;13.50;37.00
64987;DHT22;67903;52.108;9.358;2023-04-06T14:21:18;13.70;36.40
64987;DHT22;67903;52.108;9.358;2023-04-06T14:23:46;13.70;36.60
64987;DHT22;67903;52.108;9.358;2023-04-06T14:26:13;13.90;36.50
64987;DHT22;67903;52.108;9.358;2023-04-06T14:28:41;13.80;37.40
64987;DHT22;67903;52.108;9.358;2023-04-06T14:31:13;13.70;37.30
64987;DHT22;67903;52.108;9.358;2023-04-06T14:33:41;13.90;36.40
64987;DHT22;67903;52.108;9.358;2023-04-06T14:36:09;13.90;37.30
64987;DHT22;67903;52.108;9.358;2023-04-06T14:38:36;14.10;37.50
64987;DHT22;67903;52.108;9.358;2023-04-06T14:41:02;14.70;35.30
64987;DHT22;67903;52.108;9.358;2023-04-06T14:43:29;16.00;35.20
64987;DHT22;67903;52.108;9.358;2023-04-06T14:46:00;16.50;34.40
64987;DHT22;67903;52.108;9.358;2023-04-06T14:48:28;16.30;35.10
64987;DHT22;67903;52.108;9.358;2023-04-06T14:50:55;16.10;33.40
64987;DHT22;67903;52.108;9.358;2023-04-06T14:53:23;16.10;33.60
64987;DHT22;67903;52.108;9.358;2023-04-06T14:55:50;16.10;33.40
64987;DHT22;67903;52.108;9.358;2023-04-06T14:58:21;16.00;33.00
64987;DHT22;67903;52.108;9.358;2023-04-06T15:00:49;15.70;33.60
64987;DHT22;67903;52.108;9.358;2023-04-06T15:03:16;15.40;34.10
64987;DHT22;67903;52.108;9.358;2023-04-06T15:05:44;15.20;35.00
64987;DHT22;67903;52.108;9.358;2023-04-06T15:08:11;15.00;34.50
64987;DHT22;67903;52.108;9.358;2023-04-06T15:10:40;15.00;34.20
64987;DHT22;67903;52.108;9.358;2023-04-06T15:13:07;14.80;34.20
64987;DHT22;67903;52.108;9.358;2023-04-06T15:15:33;14.70;35.20
64987;DHT22;67903;52.108;9.358;2023-04-06T15:18:00;14.70;34.20
64987;DHT22;67903;52.108;9.358;2023-04-06T15:20:29;14.40;34.90
64987;DHT22;67903;52.108;9.358;2023-04-06T15:22:56;14.10;35.20
64987;DHT22;67903;52.108;9.358;2023-04-06T15:25:23;14.20;35.00
64987;DHT22;67903;52.108;9.358;2023-04-06T15:27:50;14.40;35.10
64987;DHT22;67903;52.108;9.358;2023-04-06T15:30:16;14.60;36.10
64987;DHT22;67903;52.108;9.358;2023-04-06T15:32:55;14.60;35.50
64987;DHT22;67903;52.108;9.358;2023-04-06T15:35:22;14.70;35.70
64987;DHT22;67903;52.108;9.358;2023-04-06T15:37:49;14.60;35.50
64987;DHT22;67903;52.108;9.358;2023-04-06T15:40:16;14.60;35.20
64987;DHT22;67903;52.108;9.358;2023-04-06T15:42:43;14.60;35.50
64987;DHT22;67903;52.108;9.358;2023-04-06T15:45:10;14.50;35.80
64987;DHT22;67903;52.108;9.358;2023-04-06T15:47:38;14.50;35.20
64987;DHT22;67903;52.108;9.358;2023-04-06T15:50:05;14.40;34.70
64987;DHT22;67903;52.108;9.358;2023-04-06T15:52:33;14.30;35.60
64987;DHT22;67903;52.108;9.358;2023-04-06T15:55:02;14.20;35.20
64987;DHT22;67903;52.108;9.358;2023-04-06T15:57:29;14.20;35.90
64987;DHT22;67903;52.108;9.358;2023-04-06T16:00:00;14.10;35.90
64987;DHT22;67903;52.108;9.358;2023-04-06T16:02:27;14.00;35.70